Time;durP1;ratioP1;P1;durP2;ratioP2;P2;SDS_P1;SDS_P2;PMS_P1;PMS_P2;Temp;Humidity;BMP_temperature;BMP_pressure;BME280_temperature;BME280_humidity;BME280_pressure;Samples;Min_cycle;Max_cycle;Signal;HPM_P1;HPM_P2
2023/01/22 00:02:18;;;;;;;21.80;12.82;;;0.60;83.40;;;;;;5023551;28;20038;-60
2023/01/22 00:04:44;;;;;;;20.00;11.68;;;0.60;83.40;;;;;;5023399;28;20512;-60
2023/01/22 00:07:10;;;;;;;21.98;13.40;;;0.60;83.40;;;;;;5022359;28;20416;-61
2023/01/22 00:09:35;;;;;;;21.60;12.88;;;0.60;84.30;;;;;;5024689;28;20370;-59
2023/01/22 00:12:01;;;;;;;23.38;13.25;;;0.60;83.50;;;;;;5012559;28;20448;-60
2023/01/22 00:14:26;;;;;;;24.00;13.30;;;0.60;83.50;;;;;;5022871;28;20128;-60
2023/01/22 00:16:52;;;;;;;23.73;13.68;;;0.60;83.50;;;;;;5020608;28;20475;-59
2023/01/22 00:19:18;;;;;;;25.98;15.07;;;0.60;83.50;;;;;;5023403;28;20079;-60
2023/01/22 00:21:43;;;;;;;25.00;13.68;;;0.60;83.50;;;;;;5017941;28;20030;-60
2023/01/22 00:24:09;;;;;;;18.70;10.70;;;0.60;84.40;;;;;;5018450;28;20145;-60
2023/01/22 00:26:36;;;;;;;17.08;10.25;;;0.60;83.50;;;;;;5022011;28;20514;-59
2023/01/22 00:29:02;;;;;;;16.38;10.20;;;0.60;83.50;;;;;;5020029;28;20100;-60
2023/01/22 00:31:28;;;;;;;15.52;9.60;;;0.60;83.50;;;;;;5020113;28;20061;-59
2023/01/22 00:33:53;;;;;;;16.70;10.30;;;0.60;83.70;;;;;;5020213;28;20117;-59
2023/01/22 00:36:20;;;;;;;16.80;9.77;;;0.50;83.60;;;;;;5021084;28;20513;-60
2023/01/22 00:38:47;;;;;;;16.42;9.50;;;0.50;83.60;;;;;;5019122;28;20797;-60
2023/01/22 00:41:14;;;;;;;15.45;9.85;;;0.50;83.60;;;;;;5020957;28;20057;-60
2023/01/22 00:43:40;;;;;;;14.18;9.30;;;0.60;83.70;;;;;;5018865;28;20029;-61
2023/01/22 00:46:07;;;;;;;14.85;9.40;;;0.60;83.70;;;;;;5021734;28;20042;-60
2023/01/22 00:48:33;;;;;;;16.73;10.13;;;0.60;83.60;;;;;;5018143;28;20065;-60
2023/01/22 00:50:59;;;;;;;16.60;9.80;;;0.60;83.50;;;;;;5021128;28;20525;-60
2023/01/22 00:53:24;;;;;;;16.58;10.15;;;0.60;83.50;;;;;;5018578;28;20034;-58
2023/01/22 00:55:58;;;;;;;17.77;9.73;;;0.60;83.50;;;;;;5018834;28;20037;-59
2023/01/22 00:58:24;;;;;;;16.47;9.47;;;0.60;83.70;;;;;;5020134;28;20041;-60
2023/01/22 01:00:50;;;;;;;16.27;9.63;;;0.60;83.60;;;;;;5019501;28;20041;-59
2023/01/22 01:03:26;;;;;;;14.13;8.80;;;0.70;83.60;;;;;;5015700;28;20052;-60
2023/01/22 01:05:53;;;;;;;16.00;8.98;;;0.70;84.40;;;;;;5017840;28;20259;-60
2023/01/22 01:08:19;;;;;;;15.18;9.43;;;0.70;83.50;;;;;;5021368;28;20029;-59
2023/01/22 01:10:44;;;;;;;14.43;8.73;;;0.70;83.30;;;;;;5016076;28;20120;-60
2023/01/22 01:13:11;;;;;;;15.50;9.00;;;0.80;83.20;;;;;;5017994;28;20112;-59
2023/01/22 01:15:36;;;;;;;14.90;9.20;;;0.80;83.00;;;;;;5020789;28;20025;-59
2023/01/22 01:18:02;;;;;;;16.13;8.98;;;0.80;82.80;;;;;;5022617;28;20037;-60
2023/01/22 01:20:28;;;;;;;16.23;9.55;;;0.80;82.80;;;;;;5017189;28;20068;-59
2023/01/22 01:22:54;;;;;;;14.23;8.90;;;0.80;82.80;;;;;;5022846;28;20041;-60
2023/01/22 01:25:19;;;;;;;18.90;10.13;;;0.80;82.80;;;;;;5021087;28;20113;-58
2023/01/22 01:27:45;;;;;;;15.00;9.48;;;0.80;82.80;;;;;;5024177;28;20033;-60
2023/01/22 01:30:11;;;;;;;15.80;9.43;;;0.80;82.80;;;;;;5022582;28;20029;-59
2023/01/22 01:32:36;;;;;;;14.00;9.35;;;0.80;82.70;;;;;;5023099;28;20037;-58
2023/01/22 01:35:02;;;;;;;15.20;9.23;;;0.80;82.80;;;;;;5022725;28;20033;-59
2023/01/22 01:37:27;;;;;;;15.13;9.60;;;0.80;82.70;;;;;;5022492;28;20041;-60
2023/01/22 01:39:53;;;;;;;13.98;9.00;;;0.80;82.70;;;;;;5020746;28;20065;-58
2023/01/22 01:42:25;;;;;;;13.10;8.38;;;0.80;82.60;;;;;;5020553;28;20033;-59
2023/01/22 01:45:39;;;;;;;13.30;8.50;;;0.70;82.60;;;;;;5023836;28;20034;-61
2023/01/22 01:48:25;;;;;;;13.60;8.68;;;0.70;82.60;;;;;;5020465;28;20064;-59
2023/01/22 01:51:27;;;;;;;12.98;8.15;;;0.70;82.60;;;;;;5021030;28;20032;-58
2023/01/22 01:53:53;;;;;;;14.52;8.43;;;0.70;82.60;;;;;;5008995;28;20117;-59
2023/01/22 01:56:23;;;;;;;14.82;8.75;;;0.60;82.40;;;;;;5023441;28;20037;-59
2023/01/22 01:58:53;;;;;;;12.27;8.23;;;0.60;82.30;;;;;;5023815;28;20052;-59
2023/01/22 02:01:20;;;;;;;12.18;8.00;;;0.60;82.50;;;;;;5022331;28;20485;-60
2023/01/22 02:03:46;;;;;;;11.20;7.63;;;0.60;82.50;;;;;;5020529;28;20042;-59
2023/01/22 02:06:15;;;;;;;13.70;8.25;;;0.60;82.60;;;;;;5021712;28;20176;-60
2023/01/22 02:08:43;;;;;;;12.38;7.97;;;0.60;82.80;;;;;;5023564;28;20523;-59
2023/01/22 02:11:09;;;;;;;10.43;7.30;;;0.60;82.70;;;;;;5016500;28;20037;-60
2023/01/22 02:13:39;;;;;;;12.20;7.70;;;0.60;82.60;;;;;;5023518;28;20030;-60
2023/01/22 02:16:06;;;;;;;13.93;8.43;;;0.60;83.50;;;;;;5024721;28;20047;-61
2023/01/22 02:18:32;;;;;;;10.68;7.72;;;0.60;82.70;;;;;;5024243;28;20040;-60
2023/01/22 02:20:59;;;;;;;11.65;7.93;;;0.50;82.60;;;;;;5021512;28;20500;-59
2023/01/22 02:23:26;;;;;;;12.80;7.95;;;0.50;82.60;;;;;;5019516;28;20038;-61
2023/01/22 02:25:52;;;;;;;10.25;7.25;;;0.50;82.60;;;;;;5019115;28;20042;-58
2023/01/22 02:28:18;;;;;;;12.43;8.15;;;0.50;82.70;;;;;;5022080;28;20404;-60
2023/01/22 02:30:44;;;;;;;10.15;7.35;;;0.50;82.70;;;;;;5022469;28;20040;-59
2023/01/22 02:33:10;;;;;;;12.98;7.65;;;0.50;82.70;;;;;;5022843;28;20060;-60
2023/01/22 02:35:35;;;;;;;11.70;7.53;;;0.50;82.70;;;;;;5022818;28;20111;-61
2023/01/22 02:38:02;;;;;;;12.00;7.75;;;0.60;82.70;;;;;;5022473;28;20128;-55
2023/01/22 02:40:28;;;;;;;12.27;8.05;;;0.50;82.60;;;;;;5018540;28;20038;-60
2023/01/22 02:42:55;;;;;;;12.93;8.18;;;0.60;82.70;;;;;;5023216;28;20068;-60
2023/01/22 02:45:21;;;;;;;13.65;7.70;;;0.60;82.80;;;;;;5021580;28;20088;-59
2023/01/22 02:47:46;;;;;;;11.55;7.72;;;0.60;82.80;;;;;;5019893;28;20067;-60
2023/01/22 02:50:12;;;;;;;11.82;7.30;;;0.60;82.60;;;;;;5021264;28;20453;-60
2023/01/22 02:52:37;;;;;;;12.65;7.70;;;0.60;82.60;;;;;;5021841;28;20060;-61
2023/01/22 02:55:03;;;;;;;11.55;7.53;;;0.60;82.60;;;;;;5021244;28;20029;-60
2023/01/22 02:57:30;;;;;;;12.32;7.63;;;0.60;82.60;;;;;;5023903;28;20381;-61
2023/01/22 02:59:56;;;;;;;11.13;7.82;;;0.60;82.50;;;;;;5023532;28;20038;-60
2023/01/22 03:02:21;;;;;;;14.88;8.85;;;0.60;82.60;;;;;;5022487;28;20425;-61
2023/01/22 03:04:48;;;;;;;14.77;9.27;;;0.60;82.60;;;;;;5021050;28;20080;-61
2023/01/22 03:07:17;;;;;;;13.32;8.32;;;0.70;82.60;;;;;;5024477;28;20045;-61
2023/01/22 03:09:44;;;;;;;11.35;7.63;;;0.70;82.50;;;;;;5016716;28;20030;-59
2023/01/22 03:12:10;;;;;;;11.68;7.72;;;0.70;82.50;;;;;;5017126;28;20026;-60
2023/01/22 03:22:50;;;;;;;;;;;0.70;82.30;;;;;;5023491;28;20118;-59
2023/01/22 03:25:15;;;;;;;11.93;7.65;;;0.70;82.50;;;;;;5014471;28;20012;-59
2023/01/22 03:28:07;;;;;;;11.52;7.35;;;0.70;82.10;;;;;;5020802;28;20927;-61
2023/01/22 03:30:26;;;;;;;12.93;8.10;;;0.70;82.20;;;;;;5020671;28;20121;-59
2023/01/22 03:32:52;;;;;;;11.25;7.43;;;0.70;82.20;;;;;;5020398;28;20155;-59
2023/01/22 03:35:18;;;;;;;12.85;7.75;;;0.70;82.30;;;;;;5023433;28;20037;-61
2023/01/22 03:37:43;;;;;;;11.50;8.05;;;0.70;82.30;;;;;;5022365;28;20530;-60
2023/01/22 03:40:09;;;;;;;12.05;7.53;;;0.70;82.30;;;;;;5017733;28;20124;-59
2023/01/22 03:42:35;;;;;;;12.73;8.13;;;0.70;82.30;;;;;;5016419;28;20060;-58
2023/01/22 03:45:00;;;;;;;11.95;7.57;;;0.70;82.40;;;;;;5019395;28;20413;-60
2023/01/22 03:47:26;;;;;;;11.48;7.22;;;0.70;82.50;;;;;;5023847;28;20033;-58
2023/01/22 03:49:52;;;;;;;11.32;7.45;;;0.70;82.50;;;;;;5019288;28;20037;-58
2023/01/22 03:52:17;;;;;;;12.60;7.72;;;0.70;82.50;;;;;;5020364;28;20037;-60
2023/01/22 03:54:43;;;;;;;10.90;7.18;;;0.70;82.60;;;;;;5022708;28;20528;-60
2023/01/22 03:57:08;;;;;;;11.82;7.85;;;0.80;82.70;;;;;;5019213;28;20041;-58
2023/01/22 03:59:34;;;;;;;12.43;7.57;;;0.80;82.80;;;;;;5017625;28;20037;-58
2023/01/22 04:01:59;;;;;;;11.50;7.47;;;0.80;82.80;;;;;;5023504;28;20108;-59
2023/01/22 04:04:25;;;;;;;11.57;7.60;;;0.90;82.70;;;;;;5021730;28;20040;-58
2023/01/22 04:06:51;;;;;;;13.90;8.25;;;0.90;82.60;;;;;;5022944;28;20029;-59
2023/01/22 04:09:16;;;;;;;11.32;7.55;;;0.90;82.50;;;;;;5022637;28;20045;-59
2023/01/22 04:11:42;;;;;;;11.55;7.60;;;0.90;82.40;;;;;;5018579;28;20042;-59
2023/01/22 04:14:07;;;;;;;11.98;7.63;;;1.00;82.40;;;;;;5019004;28;20045;-57
2023/01/22 04:16:33;;;;;;;10.45;7.45;;;1.00;82.40;;;;;;5023210;28;20044;-59
2023/01/22 04:18:59;;;;;;;13.32;8.05;;;1.00;82.50;;;;;;5021336;28;20033;-55
2023/01/22 04:21:24;;;;;;;12.20;7.93;;;1.00;82.40;;;;;;5035666;28;20045;-57
2023/01/22 04:23:50;;;;;;;12.90;7.85;;;1.00;82.30;;;;;;5019347;28;20116;-59
2023/01/22 04:26:15;;;;;;;10.65;7.47;;;1.00;82.30;;;;;;5018134;28;20547;-60
2023/01/22 04:28:41;;;;;;;9.23;6.95;;;1.00;82.20;;;;;;5020868;28;20467;-60
2023/01/22 04:31:08;;;;;;;11.35;7.95;;;1.10;82.30;;;;;;5020844;28;20034;-60
2023/01/22 04:33:34;;;;;;;11.25;8.00;;;1.10;82.30;;;;;;5024152;28;20512;-61
2023/01/22 04:36:00;;;;;;;10.98;7.85;;;1.10;82.40;;;;;;5023003;28;20111;-58
2023/01/22 04:38:25;;;;;;;13.50;8.93;;;1.10;82.30;;;;;;5023292;28;20076;-60
2023/01/22 04:40:51;;;;;;;11.38;8.40;;;1.20;82.40;;;;;;5019373;28;20037;-59
2023/01/22 04:43:17;;;;;;;13.45;8.25;;;1.20;82.40;;;;;;5017422;28;20144;-58
2023/01/22 04:45:42;;;;;;;13.18;8.20;;;1.20;82.30;;;;;;5032654;28;20037;-58
2023/01/22 04:48:09;;;;;;;12.95;8.77;;;1.20;82.30;;;;;;5023133;28;20087;-58
2023/01/22 04:50:35;;;;;;;15.20;9.25;;;1.30;82.30;;;;;;5019910;28;20033;-59
2023/01/22 04:53:01;;;;;;;14.98;9.20;;;1.30;82.30;;;;;;5022525;28;20119;-59
2023/01/22 04:55:28;;;;;;;14.85;9.77;;;1.30;82.20;;;;;;5023700;28;20424;-58
2023/01/22 04:57:55;;;;;;;14.70;9.02;;;1.30;82.10;;;;;;5023382;28;20043;-58
2023/01/22 05:00:21;;;;;;;14.13;9.32;;;1.30;82.00;;;;;;5024672;28;20044;-60
2023/01/22 05:02:47;;;;;;;13.93;9.10;;;1.20;81.90;;;;;;5024553;28;20045;-60
2023/01/22 05:05:12;;;;;;;13.18;8.95;;;1.40;83.00;;;;;;5028153;28;20497;-57
2023/01/22 05:07:38;;;;;;;15.15;9.55;;;1.40;82.00;;;;;;5024993;28;20284;-58
2023/01/22 05:10:04;;;;;;;14.73;9.63;;;1.40;82.00;;;;;;5026030;28;20080;-61
2023/01/22 05:12:30;;;;;;;14.50;9.48;;;1.40;81.90;;;;;;5021840;28;20046;-57
2023/01/22 05:14:55;;;;;;;14.50;9.35;;;1.40;81.90;;;;;;5026649;28;20079;-57
2023/01/22 05:17:21;;;;;;;15.55;9.38;;;1.40;81.90;;;;;;5027391;28;20029;-59
2023/01/22 05:19:46;;;;;;;14.52;9.68;;;1.40;81.90;;;;;;5026075;28;20034;-59
2023/01/22 05:22:12;;;;;;;16.50;10.55;;;1.40;81.80;;;;;;5027872;28;20132;-58
2023/01/22 05:24:38;;;;;;;13.95;9.40;;;1.40;81.80;;;;;;5023508;28;20037;-59
2023/01/22 05:27:03;;;;;;;16.25;9.70;;;1.40;81.80;;;;;;5020938;28;20127;-59
2023/01/22 05:29:29;;;;;;;17.40;10.63;;;1.40;81.90;;;;;;5024319;28;20033;-57
2023/01/22 05:31:56;;;;;;;18.23;10.82;;;1.40;82.60;;;;;;5024526;28;20409;-59
2023/01/22 05:34:22;;;;;;;18.48;10.68;;;1.40;81.80;;;;;;5024175;28;20076;-60
2023/01/22 05:36:47;;;;;;;16.45;9.98;;;1.40;81.80;;;;;;5021065;28;20075;-59
2023/01/22 05:39:14;;;;;;;15.95;9.77;;;1.40;82.00;;;;;;5025147;28;20069;-58
2023/01/22 05:41:39;;;;;;;16.17;10.05;;;1.40;82.10;;;;;;5018767;28;20461;-60
2023/01/22 05:44:05;;;;;;;19.73;11.05;;;1.30;82.10;;;;;;5023319;28;20424;-59
2023/01/22 05:46:31;;;;;;;21.30;10.98;;;1.30;82.30;;;;;;5021686;28;20037;-60
2023/01/22 05:48:58;;;;;;;20.25;11.50;;;1.30;82.30;;;;;;5022634;28;20041;-59
2023/01/22 05:51:24;;;;;;;18.13;10.30;;;1.30;82.40;;;;;;5027999;28;20041;-60
2023/01/22 05:53:50;;;;;;;20.67;11.73;;;1.30;82.50;;;;;;5025753;28;20053;-60
2023/01/22 05:56:16;;;;;;;18.90;10.95;;;1.30;82.60;;;;;;5024497;28;20584;-61
2023/01/22 05:58:41;;;;;;;17.83;10.82;;;1.30;82.60;;;;;;5023169;28;20052;-61
2023/01/22 06:01:07;;;;;;;21.88;12.20;;;1.30;82.80;;;;;;5022288;28;20485;-60
2023/01/22 06:03:33;;;;;;;21.30;11.88;;;1.30;82.80;;;;;;5023998;28;20056;-58
2023/01/22 06:06:00;;;;;;;21.20;11.75;;;1.20;82.80;;;;;;5022598;28;20026;-60
2023/01/22 06:08:27;;;;;;;20.30;11.48;;;1.20;82.80;;;;;;5021563;28;20504;-58
2023/01/22 06:11:03;;;;;;;21.55;11.73;;;1.10;82.90;;;;;;5020508;28;20559;-56
2023/01/22 06:13:31;;;;;;;23.83;11.85;;;1.10;83.20;;;;;;5022682;28;20134;-59
2023/01/22 06:15:57;;;;;;;21.17;11.82;;;1.10;83.20;;;;;;5021818;28;20094;-58
2023/01/22 06:18:24;;;;;;;21.00;11.80;;;1.10;83.20;;;;;;5024278;28;20140;-55
2023/01/22 06:20:50;;;;;;;21.08;11.75;;;1.10;83.30;;;;;;5021400;28;20029;-58
2023/01/22 06:23:16;;;;;;;19.00;10.88;;;1.10;83.30;;;;;;5021444;28;20034;-61
2023/01/22 06:25:41;;;;;;;21.42;12.05;;;1.10;83.30;;;;;;5022719;28;20115;-60
2023/01/22 06:28:07;;;;;;;22.33;11.90;;;1.10;83.30;;;;;;5022212;28;20073;-61
2023/01/22 06:30:33;;;;;;;21.35;12.23;;;1.20;83.40;;;;;;5023641;28;20037;-60
2023/01/22 06:32:58;;;;;;;22.35;12.82;;;1.20;83.30;;;;;;5022918;28;20117;-59
2023/01/22 06:35:24;;;;;;;21.58;12.02;;;1.20;83.20;;;;;;5023167;28;20025;-61
2023/01/22 06:37:50;;;;;;;22.90;12.65;;;1.20;83.10;;;;;;5019166;28;20034;-61
2023/01/22 06:40:16;;;;;;;21.70;11.98;;;1.20;83.20;;;;;;5020347;28;20346;-61
2023/01/22 06:42:41;;;;;;;23.67;12.77;;;1.20;83.00;;;;;;5023977;28;20116;-60
2023/01/22 06:45:07;;;;;;;23.20;12.48;;;1.20;83.20;;;;;;5021096;28;20041;-60
2023/01/22 06:47:33;;;;;;;21.63;12.40;;;1.20;83.30;;;;;;5023309;28;20461;-59
2023/01/22 06:49:58;;;;;;;23.13;13.02;;;1.10;83.20;;;;;;5020657;28;20052;-58
2023/01/22 06:52:24;;;;;;;23.95;13.18;;;1.20;83.30;;;;;;5023664;28;20037;-60
2023/01/22 06:54:50;;;;;;;24.65;13.15;;;1.20;83.30;;;;;;5021162;28;20124;-60
2023/01/22 06:57:15;;;;;;;25.10;14.10;;;1.20;83.20;;;;;;5023310;28;20065;-60
2023/01/22 06:59:41;;;;;;;27.95;14.55;;;1.20;83.20;;;;;;5021551;28;20037;-58
2023/01/22 07:02:09;;;;;;;25.33;13.95;;;1.10;83.20;;;;;;5014491;28;20053;-61
2023/01/22 07:04:35;;;;;;;28.70;14.93;;;1.10;83.20;;;;;;5024857;28;20044;-60
2023/01/22 07:07:00;;;;;;;22.88;12.38;;;1.10;83.30;;;;;;5021929;28;20649;-60
2023/01/22 07:09:26;;;;;;;23.88;12.75;;;1.10;83.30;;;;;;5016765;28;20151;-59
2023/01/22 07:11:51;;;;;;;24.08;13.20;;;1.00;83.30;;;;;;5016627;28;20045;-59
2023/01/22 07:14:17;;;;;;;27.80;14.73;;;1.00;83.30;;;;;;5023640;28;20133;-59
2023/01/22 07:16:42;;;;;;;26.20;14.77;;;1.00;83.40;;;;;;5022208;28;20509;-59
2023/01/22 07:19:08;;;;;;;26.42;13.70;;;1.00;83.50;;;;;;5017717;28;20076;-60
2023/01/22 07:21:34;;;;;;;22.90;12.52;;;1.00;83.50;;;;;;5024904;28;20037;-59
2023/01/22 07:23:59;;;;;;;24.73;13.15;;;0.90;83.50;;;;;;5021112;28;20500;-60
2023/01/22 07:26:25;;;;;;;23.42;11.88;;;0.90;83.50;;;;;;5020952;28;20127;-57
2023/01/22 07:28:50;;;;;;;22.98;12.70;;;0.90;83.50;;;;;;5020553;28;20067;-58
2023/01/22 07:31:16;;;;;;;22.80;12.85;;;0.90;83.70;;;;;;5023165;28;20041;-56
2023/01/22 07:33:41;;;;;;;25.35;12.57;;;0.80;83.70;;;;;;5021483;28;20551;-60
2023/01/22 07:36:07;;;;;;;22.52;11.98;;;0.80;84.00;;;;;;5022660;28;20053;-59
2023/01/22 07:38:33;;;;;;;22.33;11.85;;;0.90;84.20;;;;;;5020729;28;20067;-59
2023/01/22 07:41:06;;;;;;;22.73;12.13;;;0.90;84.20;;;;;;5019755;28;20125;-57
2023/01/22 07:43:32;;;;;;;23.20;12.63;;;0.90;84.30;;;;;;5021958;28;20124;-58
2023/01/22 07:46:02;;;;;;;22.88;12.48;;;0.90;84.20;;;;;;5017975;28;20044;-60
2023/01/22 07:48:27;;;;;;;24.95;13.18;;;0.90;84.30;;;;;;5014058;28;20046;-60
2023/01/22 07:50:53;;;;;;;23.40;13.10;;;1.00;84.40;;;;;;5004179;28;20041;-60
2023/01/22 07:53:19;;;;;;;22.77;12.68;;;1.00;84.60;;;;;;5015140;28;20025;-59
2023/01/22 07:55:44;;;;;;;23.40;13.23;;;1.10;84.70;;;;;;5002647;28;20793;-59
2023/01/22 07:58:10;;;;;;;26.65;13.38;;;1.20;84.70;;;;;;5010446;28;20368;-59
2023/01/22 08:00:36;;;;;;;23.73;12.82;;;1.20;84.50;;;;;;5007123;28;20041;-58
2023/01/22 08:03:05;;;;;;;24.05;13.63;;;1.20;84.30;;;;;;5004795;28;20399;-58
2023/01/22 08:05:31;;;;;;;23.83;13.23;;;1.30;84.40;;;;;;5012867;28;20060;-59
2023/01/22 08:07:57;;;;;;;23.58;12.85;;;1.40;84.30;;;;;;5018585;28;20708;-59
2023/01/22 08:10:23;;;;;;;26.55;14.48;;;1.40;84.30;;;;;;5017374;28;20091;-59
2023/01/22 08:12:48;;;;;;;23.25;13.15;;;1.50;84.20;;;;;;5011513;28;20409;-59
2023/01/22 08:15:14;;;;;;;22.00;12.35;;;1.60;84.10;;;;;;5018230;28;20048;-60
2023/01/22 08:17:41;;;;;;;22.17;12.20;;;1.60;83.90;;;;;;5022966;28;20123;-60
2023/01/22 08:20:07;;;;;;;23.88;12.80;;;1.70;83.70;;;;;;5019143;28;21193;-59
2023/01/22 08:22:33;;;;;;;20.40;12.25;;;1.70;83.70;;;;;;5013040;28;20034;-57
2023/01/22 08:24:58;;;;;;;20.48;11.90;;;1.80;83.50;;;;;;5022249;28;20029;-60
2023/01/22 08:27:24;;;;;;;21.35;11.98;;;1.80;83.40;;;;;;5012968;28;20056;-58
2023/01/22 08:29:50;;;;;;;22.33;12.90;;;1.90;83.40;;;;;;5015452;28;20378;-59
2023/01/22 08:32:17;;;;;;;22.38;12.43;;;1.90;83.30;;;;;;5014433;28;20499;-59
2023/01/22 08:34:42;;;;;;;24.98;13.45;;;1.90;83.20;;;;;;5020138;28;20682;-59
2023/01/22 08:37:08;;;;;;;24.60;12.98;;;2.00;83.10;;;;;;5015765;28;20029;-60
2023/01/22 08:39:33;;;;;;;25.45;14.10;;;2.00;83.00;;;;;;5022155;28;20045;-57
2023/01/22 08:41:59;;;;;;;26.05;13.43;;;2.00;83.00;;;;;;5015339;28;20049;-58
2023/01/22 08:44:25;;;;;;;23.20;13.65;;;2.10;83.00;;;;;;5019369;28;20041;-56
2023/01/22 08:46:51;;;;;;;26.35;13.77;;;2.10;82.80;;;;;;5015724;28;21527;-59
2023/01/22 08:49:17;;;;;;;25.70;13.88;;;2.10;82.70;;;;;;5019193;28;20115;-58
2023/01/22 08:51:43;;;;;;;30.15;16.52;;;2.10;82.60;;;;;;5014432;28;20048;-60
2023/01/22 08:54:09;;;;;;;26.13;13.98;;;2.20;82.70;;;;;;5021765;28;20409;-60
2023/01/22 08:56:34;;;;;;;25.77;13.77;;;2.20;82.60;;;;;;5019781;28;20037;-56
2023/01/22 08:59:05;;;;;;;25.38;13.98;;;2.20;82.60;;;;;;5014577;28;20034;-59
2023/01/22 09:01:31;;;;;;;26.17;13.65;;;2.20;82.50;;;;;;5012349;28;20084;-59
2023/01/22 09:03:57;;;;;;;24.38;13.48;;;2.20;82.50;;;;;;5017766;28;20038;-59
2023/01/22 09:06:23;;;;;;;25.17;13.57;;;2.20;82.30;;;;;;5015584;28;20449;-58
2023/01/22 09:08:49;;;;;;;26.13;13.88;;;2.20;82.30;;;;;;5016137;28;20419;-61
2023/01/22 09:11:15;;;;;;;22.85;13.27;;;2.20;82.30;;;;;;5017871;28;20806;-60
2023/01/22 09:13:40;;;;;;;23.60;13.48;;;2.30;82.40;;;;;;5014871;28;20137;-61
2023/01/22 09:16:09;;;;;;;25.85;14.00;;;2.30;82.60;;;;;;5020717;28;20038;-59
2023/01/22 09:18:35;;;;;;;22.90;13.18;;;2.30;83.30;;;;;;5018056;28;20086;-60
2023/01/22 09:21:03;;;;;;;24.80;13.75;;;2.40;82.50;;;;;;5019448;28;20038;-60
2023/01/22 09:23:28;;;;;;;24.00;13.38;;;2.40;82.40;;;;;;5020311;28;20044;-59
2023/01/22 09:25:54;;;;;;;23.98;13.77;;;2.40;82.30;;;;;;5017456;28;20025;-59
2023/01/22 09:28:19;;;;;;;25.13;13.10;;;2.40;82.30;;;;;;5016386;28;20040;-60
2023/01/22 09:30:45;;;;;;;26.70;14.10;;;2.40;82.30;;;;;;5012894;28;20064;-59
2023/01/22 09:33:11;;;;;;;22.63;13.23;;;2.50;82.30;;;;;;5020558;28;20068;-60
2023/01/22 09:35:36;;;;;;;23.65;13.30;;;2.50;82.00;;;;;;5018787;28;20037;-61
2023/01/22 09:38:04;;;;;;;23.83;13.02;;;2.50;82.00;;;;;;5011513;28;20029;-62
2023/01/22 09:40:35;;;;;;;23.08;13.23;;;2.50;82.00;;;;;;5012128;28;21220;-59
2023/01/22 09:43:23;;;;;;;24.58;14.35;;;2.50;81.80;;;;;;5026310;28;20048;-59
2023/01/22 09:45:54;;;;;;;23.73;13.68;;;2.50;81.80;;;;;;5018016;28;20041;-60
2023/01/22 09:48:20;;;;;;;24.23;13.43;;;2.50;81.90;;;;;;5017693;28;20044;-60
2023/01/22 09:50:47;;;;;;;28.17;15.23;;;2.50;81.80;;;;;;5019767;28;21178;-58
2023/01/22 09:53:16;;;;;;;24.20;13.98;;;2.50;82.00;;;;;;5019940;28;21373;-58
2023/01/22 09:55:45;;;;;;;22.75;12.95;;;2.60;82.00;;;;;;5021801;28;20091;-58
2023/01/22 09:58:17;;;;;;;22.50;13.15;;;2.60;81.80;;;;;;5022571;28;20034;-61
2023/01/22 10:00:53;;;;;;;25.83;14.70;;;2.60;81.60;;;;;;5014912;28;20091;-58
2023/01/22 10:03:31;;;;;;;24.08;13.40;;;2.60;81.60;;;;;;5020528;28;20483;-59
2023/01/22 10:06:11;;;;;;;24.92;13.68;;;2.60;81.40;;;;;;5015226;28;20495;-57
2023/01/22 10:08:54;;;;;;;23.48;13.40;;;2.60;81.40;;;;;;5018951;28;20064;-59
2023/01/22 10:11:20;;;;;;;24.90;14.48;;;2.60;81.30;;;;;;5012651;28;20690;-61
2023/01/22 10:13:51;;;;;;;24.38;14.35;;;2.60;81.30;;;;;;5017741;28;20432;-61
2023/01/22 10:16:17;;;;;;;29.05;15.52;;;2.50;81.20;;;;;;5020500;28;20035;-59
2023/01/22 10:18:43;;;;;;;26.35;14.50;;;2.60;81.30;;;;;;5024473;28;20409;-58
2023/01/22 10:21:24;;;;;;;22.00;13.40;;;2.50;81.00;;;;;;5022966;28;20033;-57
2023/01/22 10:23:50;;;;;;;23.15;12.68;;;2.50;81.10;;;;;;5026063;28;20207;-60
2023/01/22 10:26:24;;;;;;;24.42;13.57;;;2.50;81.40;;;;;;5025423;28;20229;-59
2023/01/22 10:29:01;;;;;;;25.20;13.85;;;2.50;81.50;;;;;;5024256;28;20456;-61
2023/01/22 10:31:30;;;;;;;26.25;13.82;;;2.50;81.20;;;;;;5025470;28;20049;-60
2023/01/22 10:34:02;;;;;;;25.52;14.30;;;2.50;81.10;;;;;;5027244;28;20497;-61
2023/01/22 10:36:29;;;;;;;26.77;14.98;;;2.40;80.90;;;;;;5026903;28;20507;-59
2023/01/22 10:39:21;;;;;;;24.35;13.57;;;2.40;80.70;;;;;;5026912;28;20469;-60
2023/01/22 10:41:47;;;;;;;22.45;12.75;;;2.30;81.30;;;;;;5022249;28;20041;-60
2023/01/22 10:44:19;;;;;;;24.75;13.90;;;2.30;81.50;;;;;;5025133;28;20041;-59
2023/01/22 10:46:48;;;;;;;21.95;12.90;;;2.30;81.70;;;;;;5026808;28;20029;-56
2023/01/22 10:49:23;;;;;;;19.92;12.48;;;2.40;81.70;;;;;;5026332;28;20037;-58
2023/01/22 10:52:05;;;;;;;17.52;11.00;;;2.40;81.60;;;;;;5026728;28;20052;-59
2023/01/22 10:54:40;;;;;;;18.75;10.75;;;2.40;81.10;;;;;;5017810;28;20537;-56
2023/01/22 10:57:25;;;;;;;17.85;11.43;;;2.40;81.00;;;;;;5021868;28;20033;-59
2023/01/22 11:00:19;;;;;;;22.50;12.40;;;2.50;81.10;;;;;;5023048;28;20090;-61
2023/01/22 11:02:47;;;;;;;20.58;11.65;;;2.40;80.80;;;;;;5019690;28;20043;-60
2023/01/22 11:05:17;;;;;;;17.50;10.68;;;2.50;81.10;;;;;;5026369;28;20041;-59
2023/01/22 11:07:49;;;;;;;14.55;9.43;;;2.50;81.10;;;;;;5021631;28;20543;-59
2023/01/22 11:10:26;;;;;;;15.50;9.65;;;2.50;81.00;;;;;;5021163;28;20128;-60
2023/01/22 11:12:58;;;;;;;15.18;9.00;;;2.60;80.90;;;;;;5019701;28;20604;-58
2023/01/22 11:15:56;;;;;;;14.13;9.35;;;2.60;80.70;;;;;;5021230;28;20474;-59
2023/01/22 11:18:36;;;;;;;15.07;9.60;;;2.70;80.60;;;;;;5024456;28;20400;-56
2023/01/22 11:21:18;;;;;;;15.07;9.55;;;2.80;80.30;;;;;;5026293;28;20345;-59
2023/01/22 11:23:48;;;;;;;15.98;9.52;;;2.80;80.20;;;;;;5023758;28;20040;-59
2023/01/22 11:26:52;;;;;;;14.40;9.13;;;2.80;79.90;;;;;;5025324;28;20393;-59
2023/01/22 11:29:33;;;;;;;14.05;9.07;;;2.80;79.10;;;;;;4956909;28;20031;-60
2023/01/22 11:32:10;;;;;;;13.23;8.07;;;2.80;79.30;;;;;;4956603;28;20035;-57
2023/01/22 11:35:05;;;;;;;10.07;7.07;;;2.80;79.00;;;;;;5001559;28;20511;-59
2023/01/22 11:38:08;;;;;;;9.98;6.60;;;2.80;78.70;;;;;;5026192;28;20412;-58
2023/01/22 11:40:41;;;;;;;19.63;12.82;;;2.80;78.50;;;;;;5024845;28;20042;-59
2023/01/22 11:43:33;;;;;;;12.80;8.43;;;2.80;79.00;;;;;;5022202;28;20045;-59
2023/01/22 11:46:08;;;;;;;11.93;7.60;;;2.80;78.70;;;;;;5024142;28;20037;-60
2023/01/22 11:48:52;;;;;;;13.30;7.72;;;2.80;78.90;;;;;;5023258;28;21708;-58
2023/01/22 11:51:44;;;;;;;17.50;9.75;;;2.80;79.10;;;;;;5024062;28;20167;-61
2023/01/22 11:54:21;;;;;;;22.15;10.10;;;2.80;78.80;;;;;;5023172;28;20030;-59
2023/01/22 11:56:53;;;;;;;17.92;8.88;;;2.80;78.80;;;;;;5022434;28;20029;-58
2023/01/22 11:59:44;;;;;;;12.85;8.23;;;2.80;78.50;;;;;;5027363;28;20034;-60
2023/01/22 12:02:25;;;;;;;8.95;6.28;;;2.80;78.20;;;;;;5023691;28;21206;-58
2023/01/22 12:05:08;;;;;;;10.63;7.03;;;2.90;78.30;;;;;;5023043;28;20063;-59
2023/01/22 12:07:51;;;;;;;10.82;7.15;;;2.90;78.30;;;;;;5023393;28;20041;-59
2023/01/22 12:10:26;;;;;;;9.68;6.75;;;2.90;78.30;;;;;;5021176;28;20033;-57
2023/01/22 12:12:56;;;;;;;10.15;7.10;;;2.90;78.50;;;;;;5024062;28;20120;-59
2023/01/22 12:15:52;;;;;;;12.07;7.25;;;3.00;78.30;;;;;;5020948;28;20493;-58
2023/01/22 12:18:30;;;;;;;11.60;7.38;;;3.00;77.80;;;;;;5022416;28;20029;-59
2023/01/22 12:21:06;;;;;;;7.88;5.90;;;3.00;78.10;;;;;;5023584;28;20038;-59
2023/01/22 12:23:43;;;;;;;8.30;6.07;;;3.00;78.10;;;;;;5020366;28;20037;-56
2023/01/22 12:26:23;;;;;;;8.55;5.35;;;3.00;77.90;;;;;;5025387;28;20041;-58
2023/01/22 12:28:56;;;;;;;7.38;5.57;;;3.00;77.30;;;;;;5022154;28;20477;-58
2023/01/22 12:31:30;;;;;;;7.50;6.05;;;3.00;77.30;;;;;;5021405;28;20037;-57
2023/01/22 12:34:03;;;;;;;9.43;6.75;;;3.00;76.80;;;;;;5025711;28;20051;-57
2023/01/22 12:36:31;;;;;;;9.13;6.75;;;3.00;76.80;;;;;;5023964;28;20037;-59
2023/01/22 12:39:01;;;;;;;11.43;6.90;;;3.00;76.90;;;;;;5016814;28;20040;-59
2023/01/22 12:41:59;;;;;;;9.77;6.88;;;3.00;76.80;;;;;;5022065;28;20099;-59
2023/01/22 12:44:31;;;;;;;9.18;6.70;;;2.90;76.20;;;;;;5023648;28;20095;-60
2023/01/22 12:47:02;;;;;;;11.02;7.53;;;2.90;76.80;;;;;;5018532;28;20456;-59
2023/01/22 12:49:27;;;;;;;11.48;7.75;;;2.90;76.60;;;;;;5025352;28;20041;-59
2023/01/22 12:51:55;;;;;;;10.13;7.38;;;2.90;76.70;;;;;;5024847;28;20064;-59
2023/01/22 12:54:32;;;;;;;9.73;6.95;;;2.90;76.60;;;;;;5024159;28;20254;-58
2023/01/22 12:57:21;;;;;;;9.02;6.68;;;2.90;76.40;;;;;;5021052;28;20038;-59
2023/01/22 12:59:49;;;;;;;8.20;6.53;;;2.90;76.70;;;;;;5018372;28;20420;-60
2023/01/22 13:02:28;;;;;;;9.77;7.40;;;2.90;77.20;;;;;;5015383;28;20132;-59